createdAt,value
2018-09-25T00:01:07.412Z,103099.53
2018-09-25T00:03:41.371Z,103105.13
2018-09-25T00:06:15.163Z,103100.81
2018-09-25T00:08:49.004Z,103101.16
2018-09-25T00:11:22.877Z,103100.89
2018-09-25T00:13:56.729Z,103100.38
2018-09-25T00:16:30.614Z,103101.47
2018-09-25T00:19:04.572Z,103088.39
2018-09-25T00:21:38.503Z,103097.53
2018-09-25T00:24:12.520Z,103097.38
2018-09-25T00:26:46.306Z,103096.62
2018-09-25T00:29:20.149Z,103102.51
2018-09-25T00:31:53.942Z,103102.33
2018-09-25T00:34:27.784Z,103103.53
2018-09-25T00:37:01.571Z,103110.92
2018-09-25T00:39:35.292Z,103108.80
2018-09-25T00:42:09.347Z,103118.63
2018-09-25T00:44:43.374Z,103117.98
2018-09-25T00:47:17.246Z,103117.83
2018-09-25T00:49:51.145Z,103118.27
2018-09-25T00:52:25.010Z,103127.58
2018-09-25T00:54:58.976Z,103122.02
2018-09-25T00:57:32.876Z,103122.30
2018-09-25T01:00:18.858Z,103126.10
2018-09-25T01:02:52.930Z,103127.16
2018-09-25T01:05:26.788Z,103133.09
2018-09-25T01:08:00.833Z,103134.59
2018-09-25T01:10:34.819Z,103135.73
2018-09-25T01:13:08.891Z,103138.66
2018-09-25T01:15:42.885Z,103138.50
2018-09-25T01:18:16.852Z,103143.77
2018-09-25T01:20:50.719Z,103138.20
2018-09-25T01:23:24.657Z,103146.88
2018-09-25T01:25:58.461Z,103147.51
2018-09-25T01:28:32.305Z,103151.62
2018-09-25T01:31:06.175Z,103147.68
2018-09-25T01:33:40.139Z,103158.77
2018-09-25T01:36:14.140Z,103159.13
2018-09-25T01:38:47.964Z,103165.37
2018-09-25T01:41:21.983Z,103167.91
2018-09-25T01:43:55.974Z,103175.98
2018-09-25T01:46:29.933Z,103171.22
2018-09-25T01:49:03.810Z,103177.34
2018-09-25T01:51:37.679Z,103178.69
2018-09-25T01:54:11.664Z,103182.42
2018-09-25T01:56:45.382Z,103178.80
2018-09-25T01:59:19.225Z,103184.01
2018-09-25T02:01:54.292Z,103185.68
2018-09-25T02:04:28.172Z,103187.41
2018-09-25T02:07:01.984Z,103194.50
2018-09-25T02:09:35.953Z,103197.33
2018-09-25T02:12:09.970Z,103195.13
2018-09-25T02:14:43.812Z,103196.27
2018-09-25T02:17:17.584Z,103197.55
2018-09-25T02:19:51.442Z,103206.53
2018-09-25T02:22:25.232Z,103211.04
2018-09-25T02:24:59.206Z,103206.77
2018-09-25T02:27:32.971Z,103212.39
2018-09-25T02:30:06.915Z,103211.16
2018-09-25T02:32:40.855Z,103208.78
2018-09-25T02:35:14.875Z,103208.81
2018-09-25T02:37:48.747Z,103214.31
2018-09-25T02:40:22.533Z,103207.50
2018-09-25T02:42:56.300Z,103211.47
2018-09-25T02:45:30.282Z,103218.06
2018-09-25T02:48:04.084Z,103212.53
2018-09-25T02:50:37.956Z,103218.44
2018-09-25T02:53:11.864Z,103221.42
2018-09-25T02:55:45.685Z,103219.78
2018-09-25T02:58:19.624Z,103215.94
2018-09-25T03:00:53.675Z,103217.72
2018-09-25T03:03:27.503Z,103216.02
2018-09-25T03:06:01.381Z,103221.72
2018-09-25T03:08:35.327Z,103229.63
2018-09-25T03:11:09.085Z,103235.55
2018-09-25T03:13:43.063Z,103239.64
2018-09-25T03:16:16.921Z,103245.85
2018-09-25T03:18:50.697Z,103252.24
2018-09-25T03:21:24.732Z,103245.09
2018-09-25T03:23:58.913Z,103253.69
2018-09-25T03:26:32.684Z,103249.94
2018-09-25T03:29:06.587Z,103257.36
2018-09-25T03:31:40.635Z,103263.82
2018-09-25T03:34:14.515Z,103267.78
2018-09-25T03:36:48.217Z,103276.72
2018-09-25T03:39:22.004Z,103268.95
2018-09-25T03:41:55.717Z,103267.67
2018-09-25T03:44:29.745Z,103270.31
2018-09-25T03:47:03.759Z,103278.31
2018-09-25T03:49:37.756Z,103273.54
2018-09-25T03:52:11.590Z,103283.08
2018-09-25T03:54:45.409Z,103282.97
2018-09-25T03:57:19.448Z,103285.67
2018-09-25T03:59:53.189Z,103283.08
2018-09-25T04:02:26.982Z,103290.78
2018-09-25T04:05:00.774Z,103294.17
2018-09-25T04:07:34.794Z,103296.21
2018-09-25T04:10:08.839Z,103301.19
2018-09-25T04:12:42.716Z,103297.56
2018-09-25T04:15:16.593Z,103302.73
2018-09-25T04:17:50.627Z,103305.02
2018-09-25T04:20:24.313Z,103314.63
2018-09-25T04:22:58.104Z,103316.07
2018-09-25T04:25:31.922Z,103322.49
2018-09-25T04:28:05.880Z,103320.98
2018-09-25T04:30:39.775Z,103322.28
2018-09-25T04:33:13.684Z,103331.34
2018-09-25T04:35:47.486Z,103335.09
2018-09-25T04:38:21.421Z,103333.50
2018-09-25T04:40:55.373Z,103322.56
2018-09-25T04:43:29.263Z,103320.28
2018-09-25T04:46:03.209Z,103326.00
2018-09-25T04:48:37.068Z,103329.98
2018-09-25T04:51:11.068Z,103334.02
2018-09-25T04:53:44.954Z,103339.30
2018-09-25T04:56:18.730Z,103341.77
2018-09-25T04:58:52.689Z,103346.03
2018-09-25T05:01:26.648Z,103348.95
2018-09-25T05:04:00.673Z,103359.78
2018-09-25T05:06:34.545Z,103367.92
2018-09-25T05:09:08.308Z,103362.65
2018-09-25T05:11:42.276Z,103365.66
2018-09-25T05:14:16.293Z,103370.50
2018-09-25T05:16:50.232Z,103364.91
2018-09-25T05:19:24.202Z,103371.32
2018-09-25T05:21:58.094Z,103373.37
2018-09-25T05:24:31.942Z,103378.86
2018-09-25T05:27:05.738Z,103372.77
2018-09-25T05:29:39.570Z,103377.36
2018-09-25T05:32:13.309Z,103372.67
2018-09-25T05:34:47.113Z,103380.59
2018-09-25T05:37:21.002Z,103378.66
2018-09-25T05:39:55.064Z,103382.81
2018-09-25T05:42:28.881Z,103378.33
2018-09-25T05:45:02.903Z,103380.98
2018-09-25T05:47:36.893Z,103378.67
2018-09-25T05:50:10.935Z,103383.77
2018-09-25T05:52:44.759Z,103381.24
2018-09-25T05:55:18.689Z,103372.86
2018-09-25T05:57:52.593Z,103375.81
2018-09-25T06:00:26.453Z,103378.10
2018-09-25T06:03:00.325Z,103375.80
2018-09-25T06:05:34.168Z,103371.33
2018-09-25T06:08:07.959Z,103383.57
2018-09-25T06:10:41.870Z,103386.91
2018-09-25T06:13:15.717Z,103388.39
2018-09-25T06:15:49.709Z,103392.25
2018-09-25T06:18:23.600Z,103390.05
2018-09-25T06:20:57.497Z,103392.16
2018-09-25T06:23:31.424Z,103398.27
2018-09-25T06:26:05.183Z,103406.31
2018-09-25T06:28:39.180Z,103412.92
2018-09-25T06:31:13.556Z,103414.02
2018-09-25T06:33:47.524Z,103408.83
2018-09-25T06:36:21.204Z,103423.02
2018-09-25T06:38:55.040Z,103431.16
2018-09-25T06:41:28.909Z,103427.58
2018-09-25T06:44:02.864Z,103434.08
2018-09-25T06:46:36.725Z,103431.23
2018-09-25T06:49:10.714Z,103434.12
2018-09-25T06:56:01.007Z,103431.86
2018-09-25T06:58:34.958Z,103436.00
2018-09-25T07:01:08.900Z,103433.45
2018-09-25T07:03:42.892Z,103436.22
2018-09-25T07:06:16.629Z,103435.40
2018-09-25T07:08:50.602Z,103445.45
2018-09-25T07:11:24.573Z,103445.01
2018-09-25T07:13:58.379Z,103450.47
2018-09-25T07:16:32.238Z,103456.69
2018-09-25T07:19:06.197Z,103461.77
2018-09-25T07:21:40.066Z,103459.30
2018-09-25T07:24:13.828Z,103466.25
2018-09-25T07:26:47.697Z,103464.88
2018-09-25T07:29:21.545Z,103472.29
2018-09-25T07:31:55.632Z,103475.76
2018-09-25T07:34:29.353Z,103479.00
2018-09-25T07:37:03.117Z,103480.20
2018-09-25T07:39:37.002Z,103482.69
2018-09-25T07:42:10.983Z,103488.86
2018-09-25T07:44:44.826Z,103497.98
2018-09-25T07:47:18.661Z,103495.97
2018-09-25T07:49:52.560Z,103491.68
2018-09-25T07:52:26.361Z,103489.11
2018-09-25T07:55:00.189Z,103501.23
2018-09-25T07:57:34.114Z,103505.75
2018-09-25T08:00:08.054Z,103502.95
2018-09-25T08:02:41.976Z,103504.75
2018-09-25T08:05:15.813Z,103498.97
2018-09-25T08:07:49.673Z,103495.73
2018-09-25T08:10:23.523Z,103505.80
2018-09-25T08:12:57.484Z,103512.28
2018-09-25T08:15:31.541Z,103513.20
2018-09-25T08:18:05.403Z,103509.77
2018-09-25T08:20:39.318Z,103514.31
2018-09-25T08:23:13.261Z,103518.66
2018-09-25T08:25:47.060Z,103521.59
2018-09-25T08:28:21.097Z,103521.70
2018-09-25T08:30:55.017Z,103534.11
2018-09-25T08:33:28.933Z,103527.64
2018-09-25T08:36:02.737Z,103534.19
2018-09-25T08:38:36.788Z,103529.47
2018-09-25T08:41:10.663Z,103534.41
2018-09-25T08:43:44.548Z,103532.63
2018-09-25T08:46:18.426Z,103528.43
2018-09-25T08:48:52.263Z,103539.09
2018-09-25T08:51:26.177Z,103541.90
2018-09-25T08:54:00.064Z,103539.35
2018-09-25T08:56:34.076Z,103540.25
2018-09-25T08:59:08.035Z,103544.61
2018-09-25T09:01:41.974Z,103549.54
2018-09-25T09:04:15.821Z,103546.34
2018-09-25T09:06:49.833Z,103549.31
2018-09-25T09:09:23.801Z,103553.92
2018-09-25T09:11:57.757Z,103550.87
2018-09-25T09:14:31.633Z,103549.06
2018-09-25T09:17:05.403Z,103551.63
2018-09-25T09:19:39.419Z,103559.41
2018-09-25T09:22:13.437Z,103563.48
2018-09-25T09:24:47.336Z,103559.59
2018-09-25T09:27:21.177Z,103562.09
2018-09-25T09:29:54.983Z,103563.90
2018-09-25T09:32:28.933Z,103561.30
2018-09-25T09:35:02.876Z,103562.00
2018-09-25T09:37:36.989Z,103567.22
2018-09-25T09:40:11.310Z,103569.44
2018-09-25T09:42:45.326Z,103569.16
2018-09-25T09:45:19.221Z,103564.48
2018-09-25T09:47:53.213Z,103570.65
2018-09-25T09:50:27.169Z,103569.48
2018-09-25T09:53:01.152Z,103569.01
2018-09-25T09:55:35.129Z,103573.16
2018-09-25T09:58:08.964Z,103581.05
2018-09-25T10:00:42.770Z,103571.20
2018-09-25T10:03:16.513Z,103575.29
2018-09-25T10:05:50.489Z,103570.92
2018-09-25T10:08:24.430Z,103575.72
2018-09-25T10:10:58.319Z,103587.16
2018-09-25T10:13:32.266Z,103580.36
2018-09-25T10:16:06.185Z,103576.93
2018-09-25T10:18:40.264Z,103570.86
2018-09-25T10:21:14.113Z,103568.86
2018-09-25T10:23:48.161Z,103577.38
2018-09-25T10:26:22.152Z,103580.77
2018-09-25T10:28:56.069Z,103580.47
2018-09-25T10:31:30.010Z,103588.53
2018-09-25T10:34:04.079Z,103580.78
2018-09-25T10:36:38.001Z,103585.28
2018-09-25T10:39:14.167Z,103595.64
2018-09-25T10:41:48.081Z,103587.33
2018-09-25T10:44:22.000Z,103591.52
2018-09-25T10:46:55.968Z,103584.82
2018-09-25T10:49:29.834Z,103581.45
2018-09-25T10:52:03.757Z,103587.16
2018-09-25T10:54:37.673Z,103565.24
2018-09-25T10:57:11.383Z,103588.77
2018-09-25T10:59:45.360Z,103593.41
2018-09-25T11:02:19.202Z,103596.38
2018-09-25T11:04:53.201Z,103590.00
2018-09-25T11:07:27.218Z,103587.08
2018-09-25T11:10:01.155Z,103588.58
2018-09-25T11:12:35.004Z,103598.58
2018-09-25T11:15:08.848Z,103595.59
2018-09-25T11:17:42.786Z,103600.58
2018-09-25T11:20:16.593Z,103604.63
2018-09-25T11:22:50.546Z,103607.60
2018-09-25T11:25:24.394Z,103608.30
2018-09-25T11:27:58.177Z,103591.61
2018-09-25T11:30:32.146Z,103588.69
2018-09-25T11:33:06.165Z,103591.92
2018-09-25T11:35:39.978Z,103579.89
2018-09-25T11:38:13.777Z,103574.71
2018-09-25T11:40:47.671Z,103583.95
2018-09-25T11:43:21.552Z,103573.47
2018-09-25T11:45:55.356Z,103572.02
2018-09-25T11:48:29.166Z,103581.55
2018-09-25T11:51:03.228Z,103580.03
2018-09-25T11:53:37.001Z,103570.67
2018-09-25T11:56:10.851Z,103567.30
2018-09-25T11:58:44.666Z,103563.90
2018-09-25T12:01:18.502Z,103559.97
2018-09-25T12:03:52.452Z,103560.03
2018-09-25T12:06:26.439Z,103554.17
2018-09-25T12:09:00.476Z,103560.67
2018-09-25T12:11:34.422Z,103571.34
2018-09-25T12:14:08.294Z,103580.43
2018-09-25T12:16:42.339Z,103578.52
2018-09-25T12:19:16.155Z,103578.34
2018-09-25T12:21:50.190Z,103574.64
2018-09-25T12:24:24.032Z,103569.25
2018-09-25T12:26:57.924Z,103568.25
2018-09-25T12:29:31.697Z,103565.41
2018-09-25T12:32:05.514Z,103569.07
2018-09-25T12:34:39.462Z,103565.28
2018-09-25T12:37:13.400Z,103570.08
2018-09-25T12:39:47.197Z,103556.88
2018-09-25T12:42:20.887Z,103566.33
2018-09-25T12:44:54.830Z,103561.27
2018-09-25T12:47:28.673Z,103560.97
2018-09-25T12:50:02.596Z,103547.22
2018-09-25T12:52:36.545Z,103545.66
2018-09-25T12:55:10.556Z,103551.41
2018-09-25T12:57:44.420Z,103551.17
2018-09-25T13:00:18.384Z,103546.25
2018-09-25T13:02:52.395Z,103559.34
2018-09-25T13:05:26.321Z,103548.92
2018-09-25T13:08:00.361Z,103544.66
2018-09-25T13:10:34.159Z,103545.81
2018-09-25T13:13:08.148Z,103537.88
2018-09-25T13:15:42.002Z,103537.06
2018-09-25T13:18:15.933Z,103545.00
2018-09-25T13:20:49.924Z,103534.72
2018-09-25T13:23:23.869Z,103538.92
2018-09-25T13:25:57.862Z,103537.47
2018-09-25T13:28:31.825Z,103536.35
2018-09-25T13:31:05.621Z,103532.06
2018-09-25T13:33:39.410Z,103516.63
2018-09-25T13:36:13.454Z,103513.62
2018-09-25T13:38:47.426Z,103536.55
2018-09-25T13:41:21.265Z,103536.30
2018-09-25T13:43:55.278Z,103523.58
2018-09-25T13:46:29.379Z,103531.18
2018-09-25T13:49:03.389Z,103537.92
2018-09-25T13:51:37.164Z,103523.64
2018-09-25T13:54:11.204Z,103519.52
2018-09-25T13:56:45.244Z,103532.56
2018-09-25T13:59:19.189Z,103524.48
2018-09-25T14:01:53.132Z,103524.00
2018-09-25T14:04:27.051Z,103531.22
2018-09-25T14:07:01.020Z,103533.55
2018-09-25T14:09:34.938Z,103537.03
2018-09-25T14:12:08.884Z,103535.31
2018-09-25T14:14:42.789Z,103537.61
2018-09-25T14:17:16.752Z,103529.62
2018-09-25T14:19:50.717Z,103521.55
2018-09-25T14:22:24.574Z,103526.27
2018-09-25T14:24:58.521Z,103520.49
2018-09-25T14:27:32.436Z,103523.11
2018-09-25T14:30:06.105Z,103526.38
2018-09-25T14:32:40.144Z,103513.12
2018-09-25T14:35:14.093Z,103520.50
2018-09-25T14:37:48.012Z,103516.41
2018-09-25T14:40:21.994Z,103509.67
2018-09-25T14:42:55.994Z,103501.24
2018-09-25T14:45:29.881Z,103498.52
2018-09-25T14:48:03.711Z,103496.27
2018-09-25T14:50:37.599Z,103494.34
2018-09-25T14:53:11.532Z,103506.25
2018-09-25T14:55:45.535Z,103506.92
2018-09-25T14:58:19.465Z,103498.80
2018-09-25T15:00:53.379Z,103495.70
2018-09-25T15:03:27.111Z,103491.84
2018-09-25T15:06:00.784Z,103501.86
2018-09-25T15:08:34.767Z,103509.42
2018-09-25T15:11:08.537Z,103508.78
2018-09-25T15:13:42.606Z,103517.41
2018-09-25T15:16:16.593Z,103512.38
2018-09-25T15:18:50.491Z,103509.54
2018-09-25T15:21:24.506Z,103500.08
2018-09-25T15:23:58.269Z,103495.11
2018-09-25T15:26:32.267Z,103501.77
2018-09-25T15:29:06.252Z,103500.09
2018-09-25T15:31:40.257Z,103500.16
2018-09-25T15:34:14.246Z,103503.83
2018-09-25T15:36:48.055Z,103512.56
2018-09-25T15:39:22.029Z,103506.19
2018-09-25T15:41:55.902Z,103511.55
2018-09-25T15:44:29.869Z,103514.97
2018-09-25T15:47:03.861Z,103517.03
2018-09-25T15:49:37.845Z,103517.69
2018-09-25T15:52:11.318Z,103525.36
2018-09-25T15:54:45.288Z,103529.28
2018-09-25T15:57:19.255Z,103531.85
2018-09-25T15:59:53.197Z,103532.92
2018-09-25T16:02:27.090Z,103539.16
2018-09-25T16:05:01.030Z,103527.30
2018-09-25T16:07:35.025Z,103527.17
2018-09-25T16:10:08.793Z,103527.26
2018-09-25T16:12:42.751Z,103528.02
2018-09-25T16:15:16.554Z,103523.16
2018-09-25T16:17:57.122Z,103523.80
2018-09-25T16:20:30.863Z,103520.50
2018-09-25T16:23:04.769Z,103520.45
2018-09-25T16:32:47.529Z,103518.88
2018-09-25T16:35:21.604Z,103513.12
2018-09-25T16:37:55.497Z,103515.14
2018-09-25T16:40:29.304Z,103513.94
2018-09-25T16:43:03.223Z,103510.50
2018-09-25T16:45:37.132Z,103511.14
2018-09-25T16:48:11.010Z,103512.08
2018-09-25T16:50:44.895Z,103515.75
2018-09-25T16:53:18.722Z,103521.73
2018-09-25T16:55:52.414Z,103513.38
2018-09-25T16:58:26.384Z,103518.30
2018-09-25T17:01:00.297Z,103513.87
2018-09-25T17:03:34.211Z,103516.58
2018-09-25T17:06:08.309Z,103521.90
2018-09-25T17:08:41.978Z,103524.83
2018-09-25T17:11:15.970Z,103520.31
2018-09-25T17:13:49.803Z,103524.63
2018-09-25T17:16:23.798Z,103525.67
2018-09-25T17:18:57.523Z,103522.91
2018-09-25T17:21:31.387Z,103524.72
2018-09-25T17:24:05.300Z,103523.05
2018-09-25T17:26:39.172Z,103526.67
2018-09-25T17:29:13.241Z,103518.89
2018-09-25T17:31:47.000Z,103519.89
2018-09-25T17:34:20.855Z,103523.66
2018-09-25T17:36:54.684Z,103520.45
2018-09-25T17:39:28.505Z,103517.23
2018-09-25T17:42:02.410Z,103513.63
2018-09-25T17:44:36.219Z,103515.38
2018-09-25T17:47:10.236Z,103516.22
2018-09-25T17:49:44.198Z,103519.46
2018-09-25T17:52:18.317Z,103517.36
2018-09-25T17:54:52.293Z,103513.49
2018-09-25T17:57:26.253Z,103513.11
2018-09-25T18:00:00.124Z,103518.43
2018-09-25T18:02:33.964Z,103509.64
2018-09-25T18:05:07.739Z,103511.63
2018-09-25T18:07:41.972Z,103516.95
2018-09-25T18:10:16.075Z,103512.34
2018-09-25T18:12:50.057Z,103513.58
2018-09-25T18:15:23.808Z,103508.77
2018-09-25T18:17:57.738Z,103505.13
2018-09-25T18:20:31.745Z,103507.45
2018-09-25T18:23:05.605Z,103498.77
2018-09-25T18:25:39.404Z,103504.44
2018-09-25T18:28:13.419Z,103513.46
2018-09-25T18:30:47.310Z,103513.45
2018-09-25T18:33:21.373Z,103517.17
2018-09-25T18:35:55.179Z,103519.75
2018-09-25T18:38:29.227Z,103521.44
2018-09-25T18:41:03.183Z,103523.66
2018-09-25T18:43:36.917Z,103531.17
2018-09-25T18:46:10.838Z,103528.55
2018-09-25T18:48:44.828Z,103533.98
2018-09-25T18:51:18.646Z,103537.20
2018-09-25T18:53:52.648Z,103536.84
2018-09-25T18:56:26.533Z,103538.79
2018-09-25T18:59:00.483Z,103530.40
2018-09-25T19:01:34.472Z,103537.14
2018-09-25T19:04:08.510Z,103527.98
2018-09-25T19:06:42.528Z,103529.43
2018-09-25T19:09:16.459Z,103535.44
2018-09-25T19:11:50.318Z,103541.66
2018-09-25T19:14:24.202Z,103533.31
2018-09-25T19:16:58.085Z,103535.02
2018-09-25T19:19:32.164Z,103539.52
2018-09-25T19:22:06.167Z,103536.16
2018-09-25T19:24:40.033Z,103528.52
2018-09-25T19:27:13.899Z,103530.14
2018-09-25T19:29:47.737Z,103520.36
2018-09-25T19:32:21.826Z,103527.22
2018-09-25T19:34:55.765Z,103526.97
2018-09-25T19:37:29.670Z,103520.41
2018-09-25T19:40:03.619Z,103524.91
2018-09-25T19:42:37.468Z,103528.70
2018-09-25T19:45:11.464Z,103527.81
2018-09-25T19:47:45.133Z,103525.37
2018-09-25T19:50:19.197Z,103531.13
2018-09-25T19:52:53.043Z,103525.05
2018-09-25T19:55:27.042Z,103532.08
2018-09-25T19:58:00.968Z,103526.78
2018-09-25T20:00:34.896Z,103531.83
2018-09-25T20:03:08.889Z,103523.91
2018-09-25T20:05:42.929Z,103524.08
2018-09-25T20:08:16.729Z,103522.36
2018-09-25T20:10:50.617Z,103523.71
2018-09-25T20:13:24.749Z,103530.21
2018-09-25T20:16:01.595Z,103531.83
2018-09-25T20:18:35.305Z,103524.19
2018-09-25T20:21:09.179Z,103517.12
2018-09-25T20:23:42.823Z,103511.89
2018-09-25T20:26:16.530Z,103526.97
2018-09-25T20:28:50.287Z,103531.85
2018-09-25T20:31:24.058Z,103530.20
2018-09-25T20:33:57.707Z,103523.29
2018-09-25T20:36:31.311Z,103513.77
2018-09-25T20:39:05.048Z,103521.14
2018-09-25T20:41:38.801Z,103523.15
2018-09-25T20:44:12.713Z,103508.41
2018-09-25T20:46:46.458Z,103517.23
2018-09-25T20:49:20.268Z,103526.61
2018-09-25T20:51:54.092Z,103514.06
2018-09-25T20:54:27.804Z,103509.00
2018-09-25T20:57:01.619Z,103506.78
2018-09-25T20:59:35.342Z,103511.33
2018-09-25T21:02:09.116Z,103505.00
2018-09-25T21:04:42.991Z,103491.89
2018-09-25T21:07:16.742Z,103501.98
2018-09-25T21:09:50.712Z,103493.56
2018-09-25T21:12:24.428Z,103494.92
2018-09-25T21:14:58.093Z,103497.81
2018-09-25T21:17:32.102Z,103501.34
2018-09-25T21:20:05.850Z,103496.67
2018-09-25T21:22:39.642Z,103496.02
2018-09-25T21:25:13.359Z,103489.08
2018-09-25T21:27:47.170Z,103496.27
2018-09-25T21:30:21.029Z,103509.27
2018-09-25T21:32:55.003Z,103522.66
2018-09-25T21:35:28.785Z,103508.62
2018-09-25T21:38:02.524Z,103499.95
2018-09-25T21:40:36.364Z,103500.93
2018-09-25T21:43:10.121Z,103493.38
2018-09-25T21:45:43.729Z,103483.89
2018-09-25T21:48:17.408Z,103480.60
2018-09-25T21:50:51.176Z,103473.22
2018-09-25T21:53:25.048Z,103468.61
2018-09-25T21:55:58.795Z,103462.25
2018-09-25T21:58:32.593Z,103461.75
2018-09-25T22:01:06.355Z,103460.31
2018-09-25T22:03:40.132Z,103467.26
2018-09-25T22:06:13.964Z,103462.38
2018-09-25T22:08:47.727Z,103468.56
2018-09-25T22:11:21.523Z,103473.38
2018-09-25T22:13:55.291Z,103476.49
2018-09-25T22:16:29.112Z,103476.05
2018-09-25T22:19:02.872Z,103475.10
2018-09-25T22:21:36.702Z,103472.88
2018-09-25T22:24:10.441Z,103471.32
2018-09-25T22:26:44.228Z,103474.41
2018-09-25T22:29:18.074Z,103478.67
2018-09-25T22:31:51.792Z,103477.77
2018-09-25T22:34:25.529Z,103478.41
2018-09-25T22:36:59.234Z,103474.52
2018-09-25T22:39:33.042Z,103466.51
2018-09-25T22:42:06.852Z,103459.73
2018-09-25T22:44:40.671Z,103455.02
2018-09-25T22:47:14.504Z,103452.97
2018-09-25T22:49:48.088Z,103458.09
2018-09-25T22:52:21.881Z,103457.78
2018-09-25T22:54:55.739Z,103454.30
2018-09-25T22:57:29.450Z,103455.64
2018-09-25T23:00:03.107Z,103455.30
2018-09-25T23:02:36.876Z,103457.46
2018-09-25T23:05:10.583Z,103444.00
2018-09-25T23:07:44.381Z,103434.16
2018-09-25T23:10:18.248Z,103434.94
2018-09-25T23:12:52.083Z,103429.77
2018-09-25T23:15:25.854Z,103426.98
2018-09-25T23:17:59.604Z,103427.23
2018-09-25T23:20:33.515Z,103426.66
2018-09-25T23:23:07.367Z,103418.16
2018-09-25T23:25:41.280Z,103420.95
2018-09-25T23:28:15.026Z,103421.05
2018-09-25T23:30:48.721Z,103420.84
2018-09-25T23:33:22.537Z,103414.36
2018-09-25T23:35:56.290Z,103411.11
2018-09-25T23:38:30.095Z,103412.78
2018-09-25T23:41:03.979Z,103414.83
2018-09-25T23:43:37.828Z,103405.43
2018-09-25T23:46:44.861Z,103407.19
2018-09-25T23:49:18.840Z,103410.47
2018-09-25T23:51:59.719Z,103419.48
2018-09-25T23:54:33.217Z,103410.33
2018-09-25T23:57:12.283Z,103403.02
2018-09-25T23:59:46.739Z,103399.44
